Flight Track Log - Related Links

Times and Time Zones

All times are in EDT time to prevent confusion due to time zone crossing. See the SKW6306 flight status page for this flight to view local times or setup timezone preferences in your user account.

Time Position Orientation Groundspeed Altitude Reporting Facility
EDT Latitude Longitude Course Direction KTS MPH feet Rate Location/Type
Fri 06:05:03 PM 52.1500 -106.7333 225° Southwest 10 12 1,700  Level Winnipeg Center
Fri 06:06:03 PM 52.1500 -106.7500 270° West 30 35 1,700  Level Winnipeg Center
Fri 06:07:03 PM 52.1667 -106.7500 360° North 10 12 1,700  Level Winnipeg Center
Fri 06:08:03 PM 52.1500 -106.7333 148° Southeast 20 23 1,700 750 Level Winnipeg Center
Fri 06:09:03 PM 52.1500 -106.6667 90° East 150 173 3,200 1,900 Climbing Winnipeg Center
Fri 06:10:03 PM 52.1167 -106.6333 148° Southeast 210 242 5,500 2,300 Climbing Winnipeg Center
Fri 06:11:03 PM 52.0167 -106.6667 192° South 260 299 7,800 2,450 Climbing Winnipeg Center
Fri 06:12:03 PM 51.9667 -106.7167 212° Southwest 260 299 10,400 2,100 Climbing Winnipeg Center
Fri 06:13:03 PM 51.9000 -106.7500 197° South 280 322 12,000 1,800 Climbing Winnipeg Center
Fri 06:14:03 PM 51.8167 -106.7833 194° South 310 357 14,000 1,950 Climbing Winnipeg Center
Fri 06:15:03 PM 51.7167 -106.8500 202° Southwest 320 368 15,900 1,700 Climbing Winnipeg Center
Fri 06:16:03 PM 51.6333 -106.9167 206° Southwest 330 380 17,400 1,500 Climbing Winnipeg Center
Fri 06:17:03 PM 51.5500 -106.9500 194° South 340 391 18,900 1,600 Climbing Winnipeg Center
Fri 06:18:03 PM 51.4500 -107.0000 197° South 350 403 20,600 1,700 Climbing Winnipeg Center
Fri 06:19:03 PM 51.3667 -107.0667 207° Southwest 340 391 22,300 1,600 Climbing Winnipeg Center
Fri 06:20:03 PM 51.3000 -107.1333 212° Southwest 340 391 23,800 1,400 Climbing Winnipeg Center
Fri 06:21:03 PM 51.1833 -107.1667 190° South 340 391 25,100 1,050 Climbing Winnipeg Center
Fri 06:22:03 PM 51.1167 -107.2333 212° Southwest 340 391 25,900 900 Climbing Winnipeg Center
Fri 06:23:03 PM 51.0167 -107.2833 197° South 350 403 26,900 950 Climbing Winnipeg Center
Fri 06:24:03 PM 50.9167 -107.3500 203° Southwest 350 403 27,800 850 Climbing Winnipeg Center
Fri 06:25:03 PM 50.8333 -107.3833 194° South 350 403 28,600 850 Climbing Winnipeg Center
Fri 06:26:03 PM 50.7500 -107.4333 201° Southwest 340 391 29,500 800 Climbing Winnipeg Center
Fri 06:27:03 PM 50.6500 -107.5000 203° Southwest 340 391 30,200 600 Climbing Winnipeg Center
Fri 06:28:03 PM 50.5667 -107.5500 201° Southwest 350 403 30,700 500 Climbing Winnipeg Center
Fri 06:29:03 PM 50.4667 -107.6167 203° Southwest 350 403 31,200 500 Climbing Winnipeg Center
Fri 06:30:03 PM 50.3833 -107.6667 201° Southwest 360 414 31,700 500 Climbing Winnipeg Center
Fri 06:31:03 PM 50.2833 -107.7000 192° South 360 414 32,200 450 Climbing Winnipeg Center
Fri 06:32:03 PM 50.2000 -107.7333 194° South 360 414 32,600 400 Climbing Winnipeg Center
Fri 06:33:03 PM 50.1000 -107.7333 180° South 360 414 33,000 200 Climbing Winnipeg Center
Fri 06:34:03 PM 49.9833 -107.7667 190° South 370 426 33,000  Level Winnipeg Center
Fri 06:35:03 PM 49.8833 -107.7667 180° South 370 426 33,000  Level Winnipeg Center
Fri 06:36:03 PM 49.7667 -107.7667 180° South 380 437 33,000  Level Winnipeg Center
Fri 06:37:03 PM 49.6667 -107.8000 192° South 380 437 33,000  Level Winnipeg Center
Fri 06:38:03 PM 49.5667 -107.8000 180° South 380 437 33,000  Level Winnipeg Center
Fri 06:39:03 PM 49.4667 -107.8333 192° South 380 437 33,000  Level Winnipeg Center
Fri 06:40:03 PM 49.3500 -107.8333 180° South 390 449 33,000  Level Winnipeg Center
Fri 06:41:03 PM 49.2333 -107.8333 180° South 380 437 33,000  Level Winnipeg Center
Fri 06:42:03 PM 49.1333 -107.8500 186° South 380 437 33,000  Level Winnipeg Center
Fri 06:43:03 PM 49.0333 -107.8667 186° South 390 449 33,000  Level Winnipeg Center
Fri 06:44:03 PM 48.9333 -107.8667 180° South 380 437 33,000  Level Winnipeg Center
Fri 06:45:03 PM 48.8167 -107.8833 185° South 390 449 33,000  Level Winnipeg Center
Fri 06:45:35 PM 48.7997 -107.8619 140° Southeast 384 442 33,000 -64 Level Salt Lake Center
Fri 06:46:37 PM 48.6928 -107.8728 184° South 385 443 32,900  Descending Salt Lake Center
Fri 06:47:38 PM 48.5864 -107.8850 184° South 385 443 33,000 49 Climbing Salt Lake Center
Fri 06:48:40 PM 48.4583 -107.8992 184° South 385 443 33,000  Level Salt Lake Center
Fri 06:49:41 PM 48.3536 -107.8914 177° South 381 438 33,000  Level Salt Lake Center
Fri 06:50:43 PM 48.2450 -107.8614 170° South 392 451 33,000  Level Salt Lake Center
Fri 06:51:44 PM 48.1386 -107.8322 170° South 391 450 33,000  Level Salt Lake Center
Fri 06:52:46 PM 48.0328 -107.8039 170° South 390 449 33,000  Level Salt Lake Center
Fri 06:53:47 PM 47.9250 -107.7756 170° South 391 450 33,000  Level Salt Lake Center
Fri 06:54:49 PM 47.8192 -107.7478 170° South 390 449 33,000  Level Salt Lake Center
Fri 06:55:50 PM 47.7139 -107.7192 170° South 388 447 33,000  Level Salt Lake Center
Fri 06:56:52 PM 47.5872 -107.6861 170° South 387 445 33,000  Level Salt Lake Center
Fri 06:57:54 PM 47.4808 -107.6583 170° South 387 445 33,000  Level Salt Lake Center
Fri 06:58:55 PM 47.3719 -107.6292 170° South 392 451 33,000  Level Salt Lake Center
Fri 06:59:57 PM 47.2656 -107.6017 170° South 391 450 33,000  Level Salt Lake Center
Fri 07:00:58 PM 47.1461 -107.5714 170° South 392 451 33,000  Level Salt Lake Center
Fri 07:02:00 PM 47.0383 -107.5431 170° South 394 453 33,000  Level Salt Lake Center
Fri 07:03:01 PM 46.9300 -107.5156 170° South 395 455 33,000  Level Salt Lake Center
Fri 07:04:03 PM 46.8211 -107.4886 170° South 397 457 33,000  Level Salt Lake Center
Fri 07:05:04 PM 46.7117 -107.4603 170° South 400 460 33,000  Level Salt Lake Center
Fri 07:06:06 PM 46.6033 -107.4331 170° South 398 458 33,000  Level Salt Lake Center
Fri 07:07:07 PM 46.4928 -107.4033 170° South 400 460 33,000  Level Salt Lake Center
Fri 07:08:09 PM 46.3719 -107.3722 170° South 398 458 33,000  Level Salt Lake Center
Fri 07:09:11 PM 46.2547 -107.3439 171° South 398 458 33,000  Level Salt Lake Center
Fri 07:10:12 PM 46.1456 -107.3169 170° South 400 460 33,000  Level Salt Lake Center
Fri 07:11:14 PM 46.0264 -107.2878 170° South 404 465 33,000  Level Salt Lake Center
Fri 07:12:16 PM 45.9175 -107.2606 170° South 402 463 33,000  Level Salt Lake Center
Fri 07:13:17 PM 45.7989 -107.2319 170° South 400 460 33,000  Level Salt Lake Center
Fri 07:14:19 PM 45.6897 -107.2058 171° South 402 463 33,000  Level Salt Lake Center
Fri 07:15:21 PM 45.5814 -107.1797 170° South 400 460 33,000  Level Salt Lake Center
Fri 07:16:22 PM 45.4664 -107.1508 170° South 398 458 33,000  Level Salt Lake Center
Fri 07:17:24 PM 45.3547 -107.1206 169° South 402 463 33,000  Level Salt Lake Center
Fri 07:18:58 PM 45.1844 -107.0817 171° South 398 458 33,000  Level Denver Center
Fri 07:19:28 PM 45.1314 -107.0719 173° South 401 461 33,000  Level Salt Lake Center
Fri 07:20:29 PM 45.0250 -107.0472 171° South 403 464 33,000  Level Salt Lake Center
Fri 07:21:31 PM 44.9025 -107.0175 170° South 401 461 33,000  Level Salt Lake Center
Fri 07:22:33 PM 44.7972 -106.9933 171° South 401 461 33,000  Level Salt Lake Center
Fri 07:23:34 PM 44.6753 -106.9636 170° South 399 459 33,000  Level Salt Lake Center
Fri 07:24:36 PM 44.5694 -106.9386 170° South 401 461 33,000  Level Salt Lake Center
Fri 07:25:38 PM 44.4639 -106.9147 171° South 402 463 33,000  Level Salt Lake Center
Fri 07:26:40 PM 44.3428 -106.8850 170° South 398 458 33,000  Level Salt Lake Center
Fri 07:27:14 PM 44.2881 -106.8736 172° South 402 463 33,000  Level Denver Center
Fri 07:28:15 PM 44.1644 -106.8436 170° South 405 466 33,000  Level Denver Center
Fri 07:29:17 PM 44.0589 -106.8189 170° South 403 464 33,000  Level Denver Center
Fri 07:30:19 PM 43.9353 -106.7922 171° South 403 464 33,000  Level Denver Center
Fri 07:31:21 PM 43.8297 -106.7669 170° South 403 464 33,000  Level Denver Center
Fri 07:32:23 PM 43.7053 -106.7361 170° South 405 466 33,000  Level Denver Center
Fri 07:33:25 PM 43.6011 -106.6956 164° South 407 468 33,000  Level Denver Center
Fri 07:34:27 PM 43.4767 -106.6500 165° South 412 474 33,000 48 Level Denver Center
Fri 07:35:30 PM 43.3697 -106.6108 165° South 415 478 33,100  Climbing Denver Center
Fri 07:36:31 PM 43.2439 -106.5664 166° South 417 480 33,000 -49 Descending Denver Center
Fri 07:37:33 PM 43.1369 -106.5261 165° South 417 480 33,000  Level Denver Center
Fri 07:38:35 PM 43.0133 -106.4822 165° South 412 474 33,000  Level Denver Center
Fri 07:39:37 PM 42.9081 -106.4458 166° South 409 471 33,000  Level Denver Center
Fri 07:40:40 PM 42.7856 -106.4008 165° South 409 471 33,000  Level Denver Center
Fri 07:41:42 PM 42.6781 -106.3628 165° South 414 476 33,000  Level Denver Center
Fri 07:42:44 PM 42.5553 -106.3200 166° South 412 474 33,000  Level Denver Center
Fri 07:43:46 PM 42.4489 -106.2833 166° South 411 473 33,000  Level Denver Center
Fri 07:44:48 PM 42.3239 -106.2392 165° South 414 476 33,000  Level Denver Center
Fri 07:45:50 PM 42.2167 -106.2011 165° South 417 480 33,000  Level Denver Center
Fri 07:46:52 PM 42.1097 -106.1636 165° South 416 479 33,000  Level Denver Center
Fri 07:47:54 PM 41.9808 -106.1178 165° South 427 491 33,000  Level Denver Center
Fri 07:48:56 PM 41.8739 -106.0817 166° South 418 481 33,000  Level Denver Center
Fri 07:50:00 PM 41.7660 -106.0436 165° South  Level FlightAware Approximate
Fri 07:51:00 PM 41.6336 -105.9983 165° South 427 491 33,000  Level Denver Center
Fri 07:52:02 PM 41.5064 -105.9564 166° South 424 488 33,000  Level Denver Center
Fri 07:53:04 PM 41.3961 -105.9181 165° South 426 490 33,000  Level Denver Center
Fri 07:54:06 PM 41.2661 -105.8739 166° South 432 497 33,000  Level Denver Center
Fri 07:55:08 PM 41.1564 -105.8364 166° South 426 490 33,000  Level Denver Center
Fri 07:56:10 PM 41.0275 -105.7922 166° South 428 493 33,000 -629 Level Denver Center
Fri 07:57:12 PM 40.9031 -105.7517 166° South 433 498 31,700 -1,500 Descending Denver Center
Fri 07:58:14 PM 40.7842 -105.7111 166° South 441 507 29,900 -1,935 Descending Denver Center
Fri 07:59:16 PM 40.6944 -105.6122 140° Southeast 429 494 27,700 -2,256 Descending Denver Center
Fri 08:00:19 PM 40.6283 -105.4869 125° Southeast 422 486 25,200 -2,352 Descending Denver Center
Fri 08:01:21 PM 40.5633 -105.3686 126° Southeast 407 468 22,800 -2,129 Descending Denver Center
Fri 08:02:23 PM 40.5028 -105.2556 125° Southeast 389 448 20,800 -2,129 Descending Denver Center
Fri 08:03:25 PM 40.4156 -105.1744 145° Southeast 337 388 18,400 -2,516 Descending Denver Center
Fri 08:04:27 PM 40.3322 -105.0978 145° Southeast 339 390 15,600 -2,565 Descending Denver Center
Fri 08:05:29 PM 40.2594 -105.0172 140° Southeast 341 392 13,100 -1,258 Descending Denver Center
Fri 08:06:31 PM 40.1811 -104.9333 141° Southeast 339 390 13,000 -339 Descending Denver Center
Fri 08:07:33 PM 40.1094 -104.8553 140° Southeast 336 387 12,400 -823 Descending Denver Center
Fri 08:08:35 PM 40.0378 -104.7775 140° Southeast 314 361 11,300 -677 Descending Denver Center
Fri 08:09:37 PM 39.9789 -104.7139 140° Southeast 280 322 11,000 -145 Descending Denver Center
Fri 08:10:39 PM 39.9681 -104.6217 99° East 260 299 11,000  Level Denver Center
Fri 08:11:41 PM 39.9661 -104.5328 92° East 222 255 11,000 -581 Level Denver Center
Fri 08:12:43 PM 39.9647 -104.4600 91° East 204 235 9,800 -1,258 Descending Denver Center
Fri 08:13:45 PM 39.9225 -104.4208 145° Southeast 202 232 8,400 -1,306 Descending Denver Center
Fri 08:14:47 PM 39.8767 -104.4533 209° Southwest 204 235 7,100 -1,258 Descending Denver Center

Login

Don't have an account? Register now (free) for customized features, flight alerts, and more!